Time;durP1;ratioP1;P1;durP2;ratioP2;P2;SDS_P1;SDS_P2;PMS_P1;PMS_P2;Temp;Humidity;BMP_temperature;BMP_pressure;BME280_temperature;BME280_humidity;BME280_pressure;Samples;Min_cycle;Max_cycle;Signal;HPM_P1;HPM_P2
2022/01/19 00:00:55;;;;;;;;;;;4.80;99.90;;;;;;4955935;28;20143;-65
2022/01/19 00:03:21;;;;;;;13.20;5.75;;;4.80;99.90;;;;;;4953969;28;20005;-64
2022/01/19 00:05:47;;;;;;;;;;;4.70;99.90;;;;;;4955470;28;20294;-63
2022/01/19 00:08:17;;;;;;;12.15;6.03;;;4.70;99.90;;;;;;4960670;28;20187;-64
2022/01/19 00:10:43;;;;;;;15.75;5.28;;;4.60;99.90;;;;;;4958658;28;20039;-64
2022/01/19 00:13:09;;;;;;;13.70;6.07;;;4.60;99.90;;;;;;4958192;28;20038;-63
2022/01/19 00:15:34;;;;;;;16.13;5.43;;;4.60;99.90;;;;;;4957328;28;20361;-62
2022/01/19 00:18:00;;;;;;;12.27;5.60;;;4.50;99.90;;;;;;4962185;28;20027;-63
2022/01/19 00:20:28;;;;;;;15.50;6.07;;;4.50;99.90;;;;;;4957520;28;20037;-63
2022/01/19 00:22:54;;;;;;;14.80;7.38;;;4.40;99.90;;;;;;4957561;28;20031;-64
2022/01/19 00:25:20;;;;;;;13.20;5.45;;;4.40;99.90;;;;;;4958576;28;20058;-61
2022/01/19 00:27:46;;;;;;;17.45;6.55;;;4.30;99.90;;;;;;4958124;28;20449;-63
2022/01/19 00:30:13;;;;;;;16.63;6.97;;;4.30;99.90;;;;;;4953776;28;20057;-61
2022/01/19 00:32:38;;;;;;;15.85;8.18;;;4.30;99.90;;;;;;4958060;28;20234;-63
2022/01/19 00:35:05;;;;;;;11.82;5.88;;;4.20;99.90;;;;;;4959812;28;20574;-63
2022/01/19 00:37:31;;;;;;;14.63;6.78;;;4.20;99.90;;;;;;4958380;28;20043;-62
2022/01/19 00:39:57;;;;;;;21.40;8.48;;;4.20;99.90;;;;;;4951712;28;20035;-62
2022/01/19 00:42:23;;;;;;;19.52;8.30;;;4.20;99.90;;;;;;4948955;28;20041;-63
2022/01/19 00:44:48;;;;;;;;;;;4.10;99.90;;;;;;4958384;28;20037;-63
2022/01/19 00:47:15;;;;;;;23.80;7.85;;;4.10;99.90;;;;;;4950699;28;20295;-62
2022/01/19 00:49:42;;;;;;;14.95;6.10;;;4.00;99.90;;;;;;4953850;28;20089;-62
2022/01/19 00:52:09;;;;;;;13.65;7.32;;;4.00;99.90;;;;;;4954352;28;20035;-63
2022/01/19 00:54:35;;;;;;;17.02;6.80;;;3.90;99.90;;;;;;4961127;28;20082;-63
2022/01/19 00:57:01;;;;;;;14.60;8.57;;;3.90;99.90;;;;;;4951976;28;20027;-61
2022/01/19 00:59:26;;;;;;;15.85;6.50;;;3.90;99.90;;;;;;4950881;28;20530;-62
2022/01/19 01:01:52;;;;;;;15.50;7.68;;;3.90;99.90;;;;;;4948871;28;20027;-61
2022/01/19 01:04:17;;;;;;;16.75;6.75;;;3.90;99.90;;;;;;4952735;28;20042;-63
2022/01/19 01:06:43;;;;;;;;;;;3.80;99.90;;;;;;4957662;28;20385;-63
2022/01/19 01:09:08;;;;;;;16.55;7.03;;;3.80;99.90;;;;;;4950223;28;20495;-60
2022/01/19 01:11:36;;;;;;;15.88;6.75;;;3.80;99.90;;;;;;4953220;28;20031;-62
2022/01/19 01:16:35;;;;;;;19.58;6.82;;;3.70;99.90;;;;;;4950820;28;20120;-62
2022/01/19 01:19:04;;;;;;;16.67;5.65;;;3.70;99.90;;;;;;4953572;28;20062;-63
2022/01/19 01:21:29;;;;;;;21.17;9.10;;;3.70;99.90;;;;;;4956816;28;20038;-62
2022/01/19 01:23:55;;;;;;;15.93;6.65;;;3.70;99.90;;;;;;4953195;28;20023;-63
2022/01/19 01:26:21;;;;;;;12.52;6.95;;;3.70;99.90;;;;;;4955972;28;20031;-61
2022/01/19 01:28:46;;;;;;;14.88;6.95;;;3.70;99.90;;;;;;4954586;28;20488;-62
2022/01/19 01:31:12;;;;;;;26.92;7.22;;;3.60;99.90;;;;;;4953439;28;20045;-62
2022/01/19 01:33:40;;;;;;;19.45;6.72;;;3.60;99.90;;;;;;4955516;28;20035;-62
2022/01/19 01:36:05;;;;;;;20.30;7.15;;;3.60;99.90;;;;;;4955651;28;20031;-63
2022/01/19 01:38:31;;;;;;;16.15;6.93;;;3.60;99.90;;;;;;4951617;28;20027;-63
2022/01/19 01:40:57;;;;;;;11.77;5.70;;;3.60;99.90;;;;;;4954226;28;20027;-62
2022/01/19 01:43:23;;;;;;;15.88;7.07;;;3.50;99.90;;;;;;4960906;28;20333;-62
2022/01/19 01:45:53;;;;;;;12.35;6.65;;;3.50;99.90;;;;;;4954477;28;20035;-62
2022/01/19 01:48:22;;;;;;;12.10;6.60;;;3.50;99.90;;;;;;4952751;28;20034;-61
2022/01/19 01:53:34;;;;;;;12.07;5.57;;;3.50;99.90;;;;;;4953616;28;20078;-62
2022/01/19 01:56:13;;;;;;;14.15;7.05;;;3.40;99.90;;;;;;4954751;28;20041;-62
2022/01/19 01:58:46;;;;;;;16.45;6.40;;;3.40;99.90;;;;;;4950346;28;20055;-62
2022/01/19 02:01:12;;;;;;;10.43;5.80;;;3.40;99.90;;;;;;4954015;28;20057;-63
2022/01/19 02:03:39;;;;;;;18.48;6.90;;;3.40;99.90;;;;;;4956849;28;20051;-61
2022/01/19 02:09:10;;;;;;;16.55;7.75;;;3.30;99.90;;;;;;4954910;28;20039;-61
2022/01/19 02:22:59;;;;;;;11.73;5.95;;;3.10;99.90;;;;;;4954974;28;20086;-62
2022/01/19 02:25:29;;;;;;;15.80;6.85;;;3.10;99.90;;;;;;4954541;28;20082;-63
2022/01/19 02:31:21;;;;;;;22.95;7.45;;;3.10;99.90;;;;;;4949411;28;20062;-63
2022/01/19 02:36:36;;;;;;;20.25;7.93;;;3.10;99.90;;;;;;4953146;28;20034;-62
2022/01/19 02:41:48;;;;;;;15.75;6.55;;;3.10;99.90;;;;;;4955574;28;20058;-61
2022/01/19 02:44:28;;;;;;;14.18;7.45;;;3.10;99.90;;;;;;4954662;28;20023;-62
2022/01/19 02:49:20;;;;;;;19.02;7.68;;;3.10;99.90;;;;;;4953221;28;20127;-62
2022/01/19 02:51:49;;;;;;;13.20;7.03;;;3.10;99.90;;;;;;4954135;28;20049;-63
2022/01/19 02:54:16;;;;;;;16.38;7.30;;;3.10;99.90;;;;;;4949218;28;20031;-61
2022/01/19 02:56:46;;;;;;;17.02;7.50;;;3.00;99.90;;;;;;4956073;28;20118;-61
2022/01/19 02:59:17;;;;;;;18.63;7.18;;;3.00;99.90;;;;;;4956079;28;20039;-62
2022/01/19 03:09:45;;;;;;;19.73;7.43;;;2.80;99.90;;;;;;4951698;28;20031;-62
2022/01/19 03:12:10;;;;;;;20.58;7.10;;;2.80;99.90;;;;;;4949937;28;20031;-62
2022/01/19 03:14:37;;;;;;;19.35;7.97;;;2.80;99.90;;;;;;4950762;28;20031;-63
2022/01/19 03:17:05;;;;;;;19.05;6.88;;;2.80;99.90;;;;;;4952267;28;20031;-62
2022/01/19 03:19:31;;;;;;;18.98;6.50;;;2.80;99.90;;;;;;4955827;28;20122;-62
2022/01/19 03:21:58;;;;;;;17.13;8.18;;;2.70;99.90;;;;;;4953001;28;20028;-62
2022/01/19 03:24:24;;;;;;;18.05;8.23;;;2.70;99.90;;;;;;4956766;28;20038;-62
2022/01/19 03:26:50;;;;;;;17.17;7.60;;;2.70;99.90;;;;;;4947755;28;20395;-61
2022/01/19 03:29:16;;;;;;;21.73;9.32;;;2.70;99.90;;;;;;4957252;28;20046;-61
2022/01/19 03:31:41;;;;;;;18.40;6.78;;;2.60;99.90;;;;;;4952003;28;20113;-62
2022/01/19 03:34:07;;;;;;;18.73;7.25;;;2.60;99.90;;;;;;4951170;28;20089;-62
2022/01/19 03:36:34;;;;;;;21.15;7.13;;;2.60;99.90;;;;;;4953936;28;20042;-62
2022/01/19 03:39:00;;;;;;;11.65;6.88;;;2.60;99.90;;;;;;4954694;28;20479;-62
2022/01/19 03:41:25;;;;;;;17.55;7.85;;;2.50;99.90;;;;;;4955782;28;20050;-61
2022/01/19 03:43:51;;;;;;;15.93;7.50;;;2.50;99.90;;;;;;4960203;28;20126;-61
2022/01/19 03:46:18;;;;;;;15.20;6.95;;;2.50;99.90;;;;;;4954253;28;20061;-62
2022/01/19 03:48:53;;;;;;;21.63;8.77;;;2.50;99.90;;;;;;4953028;28;20054;-62
2022/01/19 03:51:19;;;;;;;16.37;7.27;;;2.50;99.90;;;;;;4962400;28;20114;-62
2022/01/19 03:53:45;;;;;;;14.02;7.30;;;2.50;99.90;;;;;;4956328;28;20121;-61
2022/01/19 03:56:11;;;;;;;20.60;7.03;;;2.50;99.90;;;;;;4959355;28;20040;-62
2022/01/19 03:58:36;;;;;;;17.05;7.63;;;2.50;99.90;;;;;;4957187;28;20518;-60
2022/01/19 04:01:04;;;;;;;14.38;6.88;;;2.50;99.90;;;;;;4955859;28;20407;-62
2022/01/19 04:04:01;;;;;;;20.73;8.18;;;2.50;99.90;;;;;;4956712;28;20070;-62
2022/01/19 04:07:02;;;;;;;14.88;8.00;;;2.40;99.90;;;;;;4952662;28;20027;-61
2022/01/19 04:09:04;;;;;;;14.38;6.60;;;2.30;99.90;;;;;;4952647;28;20039;-62
2022/01/19 04:11:29;;;;;;;16.65;6.78;;;2.20;99.90;;;;;;4953201;28;20106;-62
2022/01/19 04:16:31;;;;;;;15.00;6.75;;;2.30;99.90;;;;;;4951817;28;20442;-62
2022/01/19 04:19:09;;;;;;;19.73;7.15;;;2.30;99.90;;;;;;4957688;28;20031;-62
2022/01/19 04:21:34;;;;;;;17.73;8.13;;;2.30;99.90;;;;;;4955657;28;20106;-62
2022/01/19 04:24:00;;;;;;;11.75;7.22;;;2.30;99.90;;;;;;4953067;28;20111;-62
2022/01/19 04:26:26;;;;;;;19.92;7.65;;;2.30;99.90;;;;;;4957470;28;20031;-61
2022/01/19 04:28:51;;;;;;;19.13;7.78;;;2.20;99.90;;;;;;4953232;28;20026;-61
2022/01/19 04:31:17;;;;;;;18.20;8.25;;;2.20;99.90;;;;;;4950346;28;20131;-62
2022/01/19 04:33:44;;;;;;;15.73;7.57;;;2.20;99.90;;;;;;4953767;28;20027;-62
2022/01/19 04:36:31;;;;;;;15.77;7.82;;;2.20;99.90;;;;;;4960323;28;20027;-62
2022/01/19 04:44:38;;;;;;;15.57;7.40;;;2.20;99.90;;;;;;4950651;28;20031;-61
2022/01/19 05:03:42;;;;;;;14.88;7.72;;;1.80;99.90;;;;;;4955623;28;20122;-62
2022/01/19 05:06:13;;;;;;;15.38;7.00;;;1.70;99.90;;;;;;4957890;28;20489;-62
2022/01/19 05:13:52;;;;;;;23.08;7.82;;;1.60;99.90;;;;;;4954140;28;20042;-62
2022/01/19 05:16:21;;;;;;;22.50;9.05;;;1.60;99.90;;;;;;4955889;28;20485;-62
2022/01/19 05:18:51;;;;;;;15.63;8.23;;;1.70;99.90;;;;;;4949592;28;20028;-62
2022/01/19 05:21:17;;;;;;;18.40;9.75;;;1.70;99.90;;;;;;4948740;28;20055;-62
2022/01/19 05:23:42;;;;;;;20.27;9.57;;;1.70;99.90;;;;;;4951009;28;20062;-62
2022/01/19 05:26:08;;;;;;;18.02;8.35;;;1.80;99.90;;;;;;4952957;28;20039;-62
2022/01/19 05:28:34;;;;;;;21.33;9.32;;;1.90;99.90;;;;;;4953991;28;20046;-62
2022/01/19 05:30:59;;;;;;;23.90;10.05;;;1.80;99.90;;;;;;4955457;28;20587;-62
2022/01/19 05:33:25;;;;;;;21.13;8.85;;;1.70;99.90;;;;;;4955313;28;20027;-62
2022/01/19 05:35:51;;;;;;;18.63;8.13;;;1.50;99.90;;;;;;4957770;28;20417;-62
2022/01/19 05:38:16;;;;;;;16.40;8.50;;;1.40;99.90;;;;;;4957357;28;20488;-62
2022/01/19 05:40:42;;;;;;;17.30;7.93;;;1.40;99.90;;;;;;4955696;28;20043;-62
2022/01/19 05:43:07;;;;;;;22.42;8.45;;;1.40;99.90;;;;;;4957591;28;20034;-62
2022/01/19 05:45:33;;;;;;;18.85;9.15;;;1.30;99.90;;;;;;4957149;28;20028;-61
2022/01/19 05:47:59;;;;;;;16.73;7.75;;;1.30;99.90;;;;;;4958416;28;20035;-62
2022/01/19 05:50:24;;;;;;;15.27;8.10;;;1.30;99.90;;;;;;4956887;28;20552;-62
2022/01/19 05:52:51;;;;;;;13.25;6.28;;;1.40;99.90;;;;;;4953413;28;20519;-62
2022/01/19 05:55:16;;;;;;;18.77;8.45;;;1.40;99.90;;;;;;4951437;28;20384;-62
2022/01/19 05:57:42;;;;;;;20.75;8.82;;;1.40;99.90;;;;;;4949245;28;20124;-63
2022/01/19 06:00:08;;;;;;;21.45;8.85;;;1.40;99.90;;;;;;4948929;28;20122;-62
2022/01/19 06:02:35;;;;;;;14.82;7.60;;;1.40;99.90;;;;;;4958609;28;20027;-62
2022/01/19 06:05:00;;;;;;;13.73;8.00;;;1.40;99.90;;;;;;4949262;28;20035;-61
2022/01/19 06:07:29;;;;;;;19.58;8.50;;;1.50;99.90;;;;;;4954157;28;20124;-62
2022/01/19 06:10:05;;;;;;;15.15;8.57;;;1.40;99.90;;;;;;4957288;28;20035;-61
2022/01/19 06:12:32;;;;;;;19.60;7.07;;;1.40;99.90;;;;;;4953487;28;20047;-62
2022/01/19 06:15:00;;;;;;;15.65;6.78;;;1.40;99.90;;;;;;4954698;28;20038;-61
2022/01/19 06:17:25;;;;;;;16.23;7.38;;;1.30;99.90;;;;;;4952325;28;20121;-62
2022/01/19 06:19:51;;;;;;;14.90;7.38;;;1.30;99.90;;;;;;4950047;28;20738;-62
2022/01/19 06:22:17;;;;;;;37.67;9.90;;;1.20;99.90;;;;;;4958750;28;20037;-61
2022/01/19 06:24:44;;;;;;;24.85;8.45;;;1.20;99.90;;;;;;4951089;28;20173;-62
2022/01/19 06:27:10;;;;;;;17.20;8.00;;;1.20;99.90;;;;;;4952429;28;20027;-61
2022/01/19 06:29:36;;;;;;;18.70;8.43;;;1.30;99.90;;;;;;4946994;28;20046;-62
2022/01/19 06:32:01;;;;;;;19.42;7.80;;;1.30;99.90;;;;;;4950175;28;20400;-62
2022/01/19 06:34:27;;;;;;;18.73;8.70;;;1.30;99.90;;;;;;4948609;28;20074;-62
2022/01/19 06:36:53;;;;;;;14.50;7.00;;;1.30;99.90;;;;;;4952010;28;20400;-62
2022/01/19 06:39:19;;;;;;;14.40;6.55;;;1.20;99.90;;;;;;4947818;28;20046;-62
2022/01/19 06:41:46;;;;;;;19.45;7.30;;;1.20;99.90;;;;;;4948955;28;20556;-61
2022/01/19 06:44:13;;;;;;;13.55;7.20;;;1.20;99.90;;;;;;4948851;28;20519;-62
2022/01/19 06:46:40;;;;;;;16.38;7.28;;;1.10;99.90;;;;;;4948647;28;20043;-62
2022/01/19 06:49:05;;;;;;;;;;;1.10;99.90;;;;;;4951978;28;20046;-62
2022/01/19 06:51:31;;;;;;;12.85;7.45;;;1.10;99.90;;;;;;4949538;28;19919;-62
2022/01/19 06:53:56;;;;;;;16.10;7.88;;;1.10;99.90;;;;;;4952427;28;20346;-62
2022/01/19 06:56:22;;;;;;;17.55;8.63;;;1.10;99.90;;;;;;4954933;28;20035;-62
2022/01/19 06:58:48;;;;;;;14.00;7.68;;;1.10;99.90;;;;;;4951782;28;20036;-61
2022/01/19 07:01:13;;;;;;;17.05;7.82;;;1.10;99.90;;;;;;4950561;28;20039;-62
2022/01/19 07:03:39;;;;;;;20.98;7.63;;;1.10;99.90;;;;;;4959473;28;20085;-62
2022/01/19 07:06:05;;;;;;;22.75;8.73;;;1.10;99.90;;;;;;4958150;28;20031;-62
2022/01/19 07:08:30;;;;;;;17.58;7.38;;;1.10;99.90;;;;;;4956120;28;20023;-62
2022/01/19 07:10:56;;;;;;;19.45;6.97;;;1.10;99.90;;;;;;4958447;28;20172;-62
2022/01/19 07:13:21;;;;;;;15.85;7.72;;;1.10;99.90;;;;;;4952189;28;20341;-69
2022/01/19 07:15:48;;;;;;;14.70;7.38;;;1.10;99.90;;;;;;4956760;28;20038;-62
2022/01/19 07:18:13;;;;;;;13.25;8.07;;;1.10;99.90;;;;;;4951228;28;20046;-62
2022/01/19 07:20:39;;;;;;;16.25;7.75;;;1.10;99.90;;;;;;4955971;28;20030;-62
2022/01/19 07:23:04;;;;;;;19.42;7.88;;;1.10;99.90;;;;;;4957424;28;20058;-62
2022/01/19 07:25:31;;;;;;;10.18;6.40;;;1.10;99.90;;;;;;4956178;28;20497;-62
2022/01/19 07:27:57;;;;;;;17.67;6.57;;;1.10;99.90;;;;;;4955720;28;20062;-62
2022/01/19 07:30:23;;;;;;;15.65;7.93;;;1.10;99.90;;;;;;4957915;28;20060;-62
2022/01/19 07:32:49;;;;;;;;;;;1.10;99.90;;;;;;4958947;28;20027;-62
2022/01/19 07:35:17;;;;;;;12.88;6.88;;;1.10;99.90;;;;;;4956450;28;19995;-62
2022/01/19 07:37:42;;;;;;;18.85;7.90;;;1.10;99.90;;;;;;4954165;28;20102;-62
2022/01/19 07:40:09;;;;;;;17.50;8.40;;;1.20;99.90;;;;;;4952642;28;20478;-62
2022/01/19 07:42:34;;;;;;;;;;;1.20;99.90;;;;;;4955989;28;20039;-62
2022/01/19 07:45:00;;;;;;;19.52;7.03;;;1.20;99.90;;;;;;4954710;28;20040;-62
2022/01/19 07:47:29;;;;;;;14.23;6.78;;;1.20;99.90;;;;;;4951776;28;20035;-62
2022/01/19 07:49:56;;;;;;;13.02;7.07;;;1.30;99.90;;;;;;4954788;28;20070;-62
2022/01/19 07:52:43;;;;;;;23.65;9.45;;;1.30;99.90;;;;;;4956159;28;20050;-64
2022/01/19 07:55:09;;;;;;;;;;;1.30;99.90;;;;;;4961362;28;20117;-61
2022/01/19 07:57:34;;;;;;;24.65;11.48;;;1.30;99.90;;;;;;4950644;28;20004;-61
2022/01/19 08:00:00;;;;;;;29.67;13.55;;;1.40;99.90;;;;;;4950405;28;20043;-61
2022/01/19 08:02:32;;;;;;;19.67;9.45;;;1.40;99.90;;;;;;4951069;28;20058;-61
2022/01/19 08:04:58;;;;;;;13.85;8.82;;;1.50;99.90;;;;;;4952502;28;20035;-62
2022/01/19 08:07:24;;;;;;;18.70;11.18;;;1.50;99.90;;;;;;4952089;28;20035;-62
2022/01/19 08:09:49;;;;;;;17.42;9.25;;;1.60;99.90;;;;;;4952658;28;20422;-61
2022/01/19 08:12:15;;;;;;;12.48;7.38;;;1.60;99.90;;;;;;4957325;28;20094;-61
2022/01/19 08:14:40;;;;;;;13.23;7.45;;;1.70;99.90;;;;;;4948766;28;20038;-62
2022/01/19 08:17:06;;;;;;;8.52;6.97;;;1.80;99.90;;;;;;4950212;28;20504;-62
2022/01/19 08:19:31;;;;;;;13.25;7.35;;;1.90;99.90;;;;;;4951522;28;20043;-62
2022/01/19 08:21:57;;;;;;;10.65;6.95;;;2.00;99.90;;;;;;4952118;28;20027;-62
2022/01/19 08:24:22;;;;;;;15.55;10.15;;;2.10;99.90;;;;;;4954380;28;20035;-61
2022/01/19 08:26:48;;;;;;;11.88;7.85;;;2.10;99.90;;;;;;4956893;28;20047;-62
2022/01/19 08:29:13;;;;;;;18.73;6.60;;;2.20;99.90;;;;;;4953063;28;20060;-62
2022/01/19 08:31:39;;;;;;;12.13;9.23;;;2.30;99.90;;;;;;4951260;28;20156;-62
2022/01/19 08:34:05;;;;;;;12.13;8.75;;;2.30;99.90;;;;;;4957436;28;20043;-62
2022/01/19 08:36:30;;;;;;;15.00;7.93;;;2.40;99.90;;;;;;4958418;28;20058;-62
2022/01/19 08:38:56;;;;;;;20.20;11.27;;;2.50;99.90;;;;;;4957353;28;20496;-61
2022/01/19 08:41:22;;;;;;;16.77;9.75;;;2.50;99.90;;;;;;4957733;28;20193;-62
2022/01/19 08:43:48;;;;;;;11.82;8.00;;;2.60;99.90;;;;;;4959436;28;20141;-60
2022/01/19 08:46:14;;;;;;;11.82;7.72;;;2.70;99.90;;;;;;4955615;28;20058;-62
2022/01/19 08:48:41;;;;;;;12.55;7.03;;;2.70;99.90;;;;;;4954329;28;20162;-62
2022/01/19 08:51:07;;;;;;;12.00;7.80;;;2.80;99.90;;;;;;4951796;28;20523;-62
2022/01/19 08:53:32;;;;;;;18.05;7.80;;;2.80;99.90;;;;;;4949170;28;20054;-62
2022/01/19 08:55:58;;;;;;;10.10;5.85;;;2.90;99.90;;;;;;4949610;28;20500;-62
2022/01/19 08:58:24;;;;;;;10.98;5.88;;;2.90;99.90;;;;;;4952265;28;20067;-63
2022/01/19 09:00:49;;;;;;;14.20;9.07;;;3.00;99.90;;;;;;4953770;28;20126;-62
2022/01/19 09:03:16;;;;;;;12.25;7.03;;;3.10;99.90;;;;;;4952784;28;20045;-62
2022/01/19 09:05:42;;;;;;;8.98;6.25;;;3.20;99.90;;;;;;4954190;28;20043;-61
2022/01/19 09:08:09;;;;;;;8.50;6.97;;;3.30;99.90;;;;;;4951308;28;20448;-60
2022/01/19 09:10:35;;;;;;;8.68;6.07;;;3.40;99.90;;;;;;4950904;28;20043;-61
2022/01/19 09:13:01;;;;;;;7.32;5.30;;;3.40;99.90;;;;;;4953178;28;20444;-61
2022/01/19 09:15:27;;;;;;;7.85;5.88;;;3.60;99.90;;;;;;4957971;28;20031;-62
2022/01/19 09:17:52;;;;;;;9.02;6.10;;;3.70;99.90;;;;;;4957948;28;20559;-62
2022/01/19 09:20:19;;;;;;;8.50;6.13;;;3.90;99.90;;;;;;4959672;28;20040;-62
2022/01/19 09:22:44;;;;;;;10.73;6.28;;;4.00;99.90;;;;;;4951120;28;20121;-62
2022/01/19 09:25:11;;;;;;;10.63;6.97;;;4.10;99.90;;;;;;4955157;28;20557;-62
2022/01/19 09:27:40;;;;;;;8.07;7.05;;;4.10;99.90;;;;;;4954866;28;20536;-62
2022/01/19 09:30:14;;;;;;;6.95;5.30;;;4.20;99.90;;;;;;4956110;28;20122;-62
2022/01/19 09:32:40;;;;;;;12.27;6.25;;;4.30;99.90;;;;;;4954511;28;20031;-62
2022/01/19 09:35:09;;;;;;;8.65;5.78;;;4.30;99.90;;;;;;4953615;28;20029;-62
2022/01/19 09:37:37;;;;;;;9.00;5.50;;;4.30;99.90;;;;;;4951216;28;20041;-62
2022/01/19 09:40:05;;;;;;;7.20;4.82;;;4.30;99.90;;;;;;4949278;28;20046;-62
2022/01/19 09:42:30;;;;;;;8.80;5.03;;;4.30;99.90;;;;;;4953689;28;20059;-62
2022/01/19 09:44:56;;;;;;;7.38;4.95;;;4.30;99.90;;;;;;4957165;28;20082;-62
2022/01/19 09:47:22;;;;;;;6.88;4.25;;;4.30;99.90;;;;;;4951530;28;20038;-62
2022/01/19 09:49:47;;;;;;;6.43;4.35;;;4.30;99.90;;;;;;4955778;28;20126;-61
2022/01/19 09:52:13;;;;;;;11.30;6.80;;;4.30;99.90;;;;;;4956448;28;20117;-62
2022/01/19 09:54:39;;;;;;;8.27;5.68;;;4.40;99.90;;;;;;4954257;28;20357;-62
2022/01/19 09:57:05;;;;;;;9.35;6.70;;;4.40;99.90;;;;;;4954726;28;20209;-62
2022/01/19 09:59:30;;;;;;;10.27;6.60;;;4.40;99.90;;;;;;4955939;28;20110;-62
2022/01/19 10:02:06;;;;;;;10.02;7.22;;;4.40;99.90;;;;;;4956298;28;20019;-62
2022/01/19 10:04:34;;;;;;;8.90;3.70;;;4.40;99.90;;;;;;4951747;28;20035;-62
2022/01/19 10:07:18;;;;;;;8.88;5.13;;;4.40;99.90;;;;;;4955555;28;20053;-63
2022/01/19 10:10:11;;;;;;;4.55;3.78;;;4.40;99.90;;;;;;4955570;28;20417;-62
2022/01/19 10:18:17;;;;;;;9.18;4.53;;;4.50;99.90;;;;;;5009525;28;20044;-57
2022/01/19 10:20:45;;;;;;;7.78;4.75;;;4.50;99.90;;;;;;4998479;28;20108;-58
2022/01/19 10:23:38;;;;;;;11.30;3.95;;;4.50;99.90;;;;;;4988025;28;20117;-59
2022/01/19 10:26:07;;;;;;;6.35;3.90;;;4.60;99.90;;;;;;4989730;28;20069;-58
2022/01/19 10:29:01;;;;;;;5.70;3.60;;;4.60;99.90;;;;;;4984898;28;20072;-59
2022/01/19 10:31:29;;;;;;;13.30;4.75;;;4.70;99.90;;;;;;4990373;28;20081;-61
2022/01/19 10:34:19;;;;;;;5.90;4.38;;;4.70;99.90;;;;;;4987932;28;20092;-59
2022/01/19 10:36:48;;;;;;;5.13;3.75;;;4.70;99.90;;;;;;4989747;28;20488;-57
2022/01/19 10:39:16;;;;;;;4.57;3.95;;;4.70;99.90;;;;;;4997550;28;20391;-56
2022/01/19 10:42:11;;;;;;;4.65;3.83;;;4.80;99.90;;;;;;4996588;28;20034;-58
2022/01/19 10:44:37;;;;;;;6.60;3.47;;;4.80;99.90;;;;;;4991159;28;20023;-59
2022/01/19 10:47:04;;;;;;;8.07;4.63;;;4.80;99.90;;;;;;4990292;28;20092;-59
2022/01/19 10:49:52;;;;;;;6.53;4.68;;;4.80;99.90;;;;;;4990828;28;20038;-59
2022/01/19 10:52:42;;;;;;;5.22;3.30;;;4.80;99.90;;;;;;4991769;28;20109;-59
2022/01/19 10:55:11;;;;;;;5.18;4.05;;;4.90;99.90;;;;;;4990955;28;20110;-59
2022/01/19 10:57:39;;;;;;;3.85;2.65;;;5.00;99.90;;;;;;4993366;28;20212;-57
2022/01/19 11:00:21;;;;;;;7.53;3.88;;;5.00;99.90;;;;;;4991853;28;20539;-58
2022/01/19 11:02:48;;;;;;;5.15;3.53;;;5.10;99.90;;;;;;4995802;28;20339;-59
2022/01/19 11:05:14;;;;;;;6.20;3.33;;;5.10;99.90;;;;;;4997984;28;20026;-59
2022/01/19 11:07:40;;;;;;;;;;;5.10;99.90;;;;;;4991103;28;20490;-58
2022/01/19 11:10:14;;;;;;;3.08;2.33;;;5.20;99.90;;;;;;4993831;28;19921;-57
2022/01/19 11:12:53;;;;;;;5.88;2.92;;;5.20;99.90;;;;;;4993079;28;20599;-59
2022/01/19 11:15:19;;;;;;;4.35;3.90;;;5.20;99.90;;;;;;4992909;28;20042;-59
2022/01/19 11:17:49;;;;;;;4.03;3.03;;;5.20;99.90;;;;;;4992895;28;20123;-59
2022/01/19 11:20:20;;;;;;;4.65;2.83;;;5.30;99.90;;;;;;4999914;28;20026;-58
2022/01/19 11:23:04;;;;;;;3.80;3.40;;;5.30;99.90;;;;;;5000113;28;20034;-59
2022/01/19 11:25:55;;;;;;;5.90;4.07;;;5.30;99.90;;;;;;4996350;28;20435;-58
2022/01/19 11:28:38;;;;;;;4.03;2.67;;;5.30;99.90;;;;;;4998010;28;20064;-59
2022/01/19 11:31:19;;;;;;;4.28;2.63;;;5.40;99.90;;;;;;4996985;28;20636;-59
2022/01/19 11:33:52;;;;;;;6.75;3.53;;;5.40;99.90;;;;;;4992019;28;20027;-59
2022/01/19 11:36:24;;;;;;;4.15;2.80;;;5.30;99.90;;;;;;4989617;28;20026;-59
2022/01/19 11:39:03;;;;;;;6.10;3.00;;;5.40;99.90;;;;;;4994730;28;20037;-58
2022/01/19 11:41:39;;;;;;;8.30;3.38;;;5.40;99.90;;;;;;4989435;28;20030;-58
2022/01/19 11:44:07;;;;;;;3.15;2.80;;;5.40;99.90;;;;;;4991089;28;20144;-59
2022/01/19 11:46:39;;;;;;;4.57;2.65;;;5.40;99.90;;;;;;4989520;28;20049;-59
2022/01/19 11:49:07;;;;;;;2.97;2.67;;;5.40;99.90;;;;;;4989501;28;20107;-58
2022/01/19 11:51:35;;;;;;;4.68;3.60;;;5.30;99.90;;;;;;4988102;28;20129;-59
2022/01/19 11:54:21;;;;;;;5.13;3.25;;;5.30;99.90;;;;;;4988898;28;20069;-59
2022/01/19 11:56:58;;;;;;;3.78;3.03;;;5.30;99.90;;;;;;4992332;28;20054;-59
2022/01/19 11:59:30;;;;;;;3.30;2.53;;;5.30;99.90;;;;;;4990326;28;20062;-58
2022/01/19 12:02:35;;;;;;;8.98;3.95;;;5.30;99.90;;;;;;4990630;28;20032;-59
2022/01/19 12:05:20;;;;;;;5.18;3.45;;;5.30;99.90;;;;;;4991253;28;20443;-58
2022/01/19 12:07:57;;;;;;;6.63;3.30;;;5.30;99.90;;;;;;4987373;28;20391;-58
2022/01/19 12:10:30;;;;;;;;;;;5.30;99.90;;;;;;4994599;28;20026;-61
2022/01/19 12:16:11;;;;;;;5.50;3.55;;;5.30;99.90;;;;;;4993945;28;20034;-59
2022/01/19 12:18:38;;;;;;;4.45;3.92;;;5.30;99.90;;;;;;4992708;28;20031;-59
2022/01/19 12:21:05;;;;;;;3.80;3.38;;;5.30;99.90;;;;;;4992827;28;20077;-58
2022/01/19 12:23:34;;;;;;;4.63;4.22;;;5.30;99.90;;;;;;4991614;28;20041;-59
2022/01/19 12:26:01;;;;;;;4.53;4.13;;;5.30;99.90;;;;;;4991758;28;20029;-58
2022/01/19 12:28:38;;;;;;;7.85;4.10;;;5.30;99.90;;;;;;4988124;28;20106;-58
2022/01/19 12:31:25;;;;;;;4.43;4.00;;;5.30;99.90;;;;;;4989996;28;20038;-59
2022/01/19 12:34:19;;;;;;;5.20;4.07;;;5.30;99.90;;;;;;4993903;28;20401;-59
2022/01/19 12:37:05;;;;;;;4.40;3.72;;;5.20;99.90;;;;;;4994610;28;20125;-58
2022/01/19 12:39:31;;;;;;;5.60;4.25;;;5.20;99.90;;;;;;4993866;28;20034;-57
2022/01/19 12:42:02;;;;;;;7.85;4.68;;;5.20;99.90;;;;;;4995710;28;20033;-58
2022/01/19 12:44:49;;;;;;;4.00;3.60;;;5.20;99.90;;;;;;4996550;28;20022;-59
2022/01/19 12:49:51;;;;;;;5.95;3.67;;;5.20;99.90;;;;;;4994932;28;20039;-57
2022/01/19 12:52:18;;;;;;;6.32;4.22;;;5.10;99.90;;;;;;4998478;28;20468;-59
2022/01/19 12:54:44;;;;;;;5.47;4.43;;;5.10;99.90;;;;;;4987482;28;20029;-57
2022/01/19 12:57:15;;;;;;;;;;;5.10;99.90;;;;;;4991430;28;20027;-59
2022/01/19 12:59:45;;;;;;;4.78;3.42;;;5.10;99.90;;;;;;4988548;28;19993;-58
2022/01/19 13:02:14;;;;;;;3.92;3.53;;;5.00;99.90;;;;;;4987198;28;20425;-61
2022/01/19 13:04:42;;;;;;;4.60;3.50;;;5.00;99.90;;;;;;4990446;28;20026;-61
2022/01/19 13:07:20;;;;;;;4.38;3.05;;;5.00;99.90;;;;;;4988303;28;20057;-58
2022/01/19 13:12:48;;;;;;;3.75;3.30;;;5.00;99.90;;;;;;4988579;28;20557;-61
2022/01/19 13:15:14;;;;;;;4.90;3.30;;;4.90;99.90;;;;;;4989380;28;20041;-61
2022/01/19 13:17:41;;;;;;;8.75;3.47;;;4.90;99.90;;;;;;4988663;28;20026;-61
2022/01/19 13:20:22;;;;;;;3.92;3.47;;;4.90;99.90;;;;;;4988977;28;20053;-61
2022/01/19 13:22:55;;;;;;;4.28;3.88;;;4.90;99.90;;;;;;4988432;28;20097;-61
2022/01/19 13:25:25;;;;;;;5.13;3.47;;;4.90;99.90;;;;;;4994351;28;20131;-61
2022/01/19 13:27:55;;;;;;;5.25;3.67;;;4.90;99.90;;;;;;4987232;28;20030;-59
2022/01/19 13:30:22;;;;;;;3.92;2.70;;;4.80;99.90;;;;;;4992340;28;20048;-57
2022/01/19 13:32:48;;;;;;;4.05;3.65;;;4.80;99.90;;;;;;4989592;28;20034;-58
2022/01/19 13:35:13;;;;;;;5.28;3.75;;;4.80;99.90;;;;;;4991568;28;20034;-58
2022/01/19 13:37:51;;;;;;;4.72;3.25;;;4.80;99.90;;;;;;4990366;28;20041;-59
2022/01/19 13:40:23;;;;;;;4.95;4.38;;;4.70;99.90;;;;;;4989891;28;20073;-58
2022/01/19 13:42:50;;;;;;;4.90;3.75;;;4.70;99.90;;;;;;4987307;28;20395;-58
2022/01/19 13:45:25;;;;;;;5.18;4.30;;;4.80;99.90;;;;;;4988891;28;20014;-57
2022/01/19 13:48:19;;;;;;;8.43;5.18;;;4.70;99.90;;;;;;4987488;28;20112;-58
2022/01/19 13:50:45;;;;;;;4.68;4.28;;;4.80;99.90;;;;;;4993257;28;20033;-58
2022/01/19 13:53:12;;;;;;;5.28;4.32;;;4.80;99.90;;;;;;4991617;28;20023;-58
2022/01/19 13:55:40;;;;;;;6.05;3.60;;;4.80;99.90;;;;;;4996006;28;20350;-58
2022/01/19 13:58:12;;;;;;;6.85;4.50;;;4.80;99.90;;;;;;4995757;28;20030;-58
2022/01/19 14:00:50;;;;;;;4.93;3.80;;;4.80;99.90;;;;;;4992871;28;20092;-57
2022/01/19 14:03:15;;;;;;;5.72;4.05;;;4.80;99.90;;;;;;4994224;28;20022;-57
2022/01/19 14:05:45;;;;;;;5.30;4.18;;;4.80;99.90;;;;;;4986546;28;20455;-58
2022/01/19 14:08:12;;;;;;;4.90;4.38;;;4.90;99.90;;;;;;4989630;28;20653;-58
2022/01/19 14:10:49;;;;;;;4.35;3.88;;;4.90;99.90;;;;;;4988193;28;20037;-58
2022/01/19 14:13:28;;;;;;;7.60;4.82;;;4.90;99.90;;;;;;4987160;28;20023;-57
2022/01/19 14:16:17;;;;;;;5.25;4.75;;;4.90;99.90;;;;;;4988282;28;20121;-58
2022/01/19 14:19:04;;;;;;;31.30;6.22;;;4.90;99.90;;;;;;4985313;28;20321;-60
2022/01/19 14:21:29;;;;;;;17.75;5.13;;;4.90;99.90;;;;;;4986174;28;20034;-58
2022/01/19 14:23:59;;;;;;;6.85;4.35;;;4.90;99.90;;;;;;4987248;28;20622;-58
2022/01/19 14:26:25;;;;;;;5.55;4.38;;;4.90;99.90;;;;;;4991562;28;20321;-60